Time;durP1;ratioP1;P1;durP2;ratioP2;P2;SDS_P1;SDS_P2;PMS_P1;PMS_P2;Temp;Humidity;BMP_temperature;BMP_pressure;BME280_temperature;BME280_humidity;BME280_pressure;Samples;Min_cycle;Max_cycle;Signal;HPM_P1;HPM_P2
2022/07/07 00:00:13;;;;;;;1.83;1.30;;;;;;;;;;12650487;28;20032;-78
2022/07/07 00:06:17;;;;;;;1.50;0.93;;;;;;;;;;12632728;28;20262;-78
2022/07/07 00:12:19;;;;;;;1.27;1.17;;;;;;;;;;12631856;28;20024;-78
2022/07/07 00:18:21;;;;;;;0.82;0.82;;;;;;;;;;12649653;28;20046;-78
2022/07/07 00:24:22;;;;;;;1.05;0.95;;;;;;;;;;12614621;28;20040;-77
2022/07/07 00:30:24;;;;;;;1.58;0.98;;;;;;;;;;12630877;28;20455;-77
2022/07/07 00:36:26;;;;;;;0.93;0.93;;;;;;;;;;12649029;28;20040;-83
2022/07/07 00:42:28;;;;;;;1.02;0.93;;;;;;;;;;12649383;28;20511;-78
2022/07/07 00:48:32;;;;;;;0.70;0.65;;;;;;;;;;12648148;28;20036;-82
2022/07/07 00:54:35;;;;;;;0.98;0.70;;;;;;;;;;12648134;28;20040;-82
2022/07/07 01:00:37;;;;;;;0.88;0.65;;;;;;;;;;12629732;28;20032;-78
2022/07/07 01:06:40;;;;;;;1.00;0.50;;;;;;;;;;12629282;28;20496;-83
2022/07/07 01:12:42;;;;;;;1.25;0.77;;;;;;;;;;12628990;28;20035;-82
2022/07/07 01:18:44;;;;;;;0.55;0.47;;;;;;;;;;12628554;28;20036;-82
2022/07/07 01:24:46;;;;;;;0.30;0.30;;;;;;;;;;12646643;28;20399;-78
2022/07/07 01:30:48;;;;;;;0.40;0.38;;;;;;;;;;12645584;28;20385;-78
2022/07/07 01:36:49;;;;;;;0.55;0.55;;;;;;;;;;12646302;28;20040;-78
2022/07/07 01:42:51;;;;;;;0.90;0.73;;;;;;;;;;12646094;28;20046;-82
2022/07/07 01:48:53;;;;;;;1.67;0.73;;;;;;;;;;12644963;28;20036;-82
2022/07/07 01:54:55;;;;;;;0.80;0.80;;;;;;;;;;12644961;28;20050;-78
2022/07/07 02:00:57;;;;;;;2.08;0.90;;;;;;;;;;12644691;28;20055;-82
2022/07/07 02:06:59;;;;;;;0.80;0.80;;;;;;;;;;12645179;28;20475;-77
2022/07/07 02:13:01;;;;;;;0.80;0.80;;;;;;;;;;12627117;28;20032;-81
2022/07/07 02:19:04;;;;;;;1.20;0.88;;;;;;;;;;12626363;28;20110;-78
2022/07/07 02:25:06;;;;;;;0.45;0.45;;;;;;;;;;12644681;28;20044;-83
2022/07/07 02:31:08;;;;;;;1.25;0.60;;;;;;;;;;12609319;28;20038;-82
2022/07/07 02:37:10;;;;;;;1.20;0.70;;;;;;;;;;12643422;28;20043;-77
2022/07/07 02:43:12;;;;;;;0.77;0.77;;;;;;;;;;12648259;28;20056;-77
2022/07/07 02:49:14;;;;;;;0.45;0.45;;;;;;;;;;12635600;28;20137;-83
2022/07/07 02:55:16;;;;;;;0.65;0.65;;;;;;;;;;12635368;28;20032;-83
2022/07/07 03:01:18;;;;;;;0.70;0.70;;;;;;;;;;12653715;28;20028;-77
2022/07/07 03:07:19;;;;;;;1.13;0.90;;;;;;;;;;12618891;28;20055;-77
2022/07/07 03:13:21;;;;;;;1.45;0.70;;;;;;;;;;12634327;28;20036;-81
2022/07/07 03:19:23;;;;;;;1.10;1.02;;;;;;;;;;12617831;28;20049;-77
2022/07/07 03:25:24;;;;;;;;;;;;;;;;;;12652521;28;20051;-77
2022/07/07 03:31:26;;;;;;;0.70;0.70;;;;;;;;;;12652052;28;19915;-78
2022/07/07 03:37:29;;;;;;;1.13;0.70;;;;;;;;;;12633866;28;20526;-82
2022/07/07 03:43:31;;;;;;;0.77;0.68;;;;;;;;;;12652069;28;20036;-78
2022/07/07 03:49:33;;;;;;;0.88;0.88;;;;;;;;;;12633418;28;20028;-82
2022/07/07 03:55:34;;;;;;;0.85;0.80;;;;;;;;;;12615278;28;20125;-82
2022/07/07 04:01:36;;;;;;;;;;;;;;;;;;12651112;28;20039;-82
2022/07/07 04:07:38;;;;;;;0.65;0.65;;;;;;;;;;12650558;28;21216;-82
2022/07/07 04:13:40;;;;;;;;;;;;;;;;;;12650895;28;20035;-77
2022/07/07 04:19:41;;;;;;;0.70;0.57;;;;;;;;;;12650361;28;19915;-78
2022/07/07 04:25:43;;;;;;;;;;;;;;;;;;12650136;28;20048;-78
2022/07/07 04:31:45;;;;;;;0.60;0.60;;;;;;;;;;12631889;28;19912;-78
2022/07/07 04:37:46;;;;;;;;;;;;;;;;;;12650502;28;20052;-83
2022/07/07 04:43:48;;;;;;;1.10;1.10;;;;;;;;;;12630791;28;19916;-82
2022/07/07 04:49:49;;;;;;;;;;;;;;;;;;12634398;28;20035;-83
2022/07/07 04:55:51;;;;;;;1.27;0.70;;;;;;;;;;12630282;28;20399;-82
2022/07/07 05:01:53;;;;;;;;;;;;;;;;;;12614011;28;20028;-78
2022/07/07 05:07:54;;;;;;;0.60;0.60;;;;;;;;;;12646997;28;20354;-78
2022/07/07 05:13:56;;;;;;;0.47;0.40;;;;;;;;;;12628380;28;20039;-82
2022/07/07 05:19:58;;;;;;;;;;;;;;;;;;12646755;28;20040;-83
2022/07/07 05:25:59;;;;;;;0.50;0.50;;;;;;;;;;12611859;28;20418;-82
2022/07/07 05:32:01;;;;;;;0.50;0.50;;;;;;;;;;12692799;28;20040;-81
2022/07/07 05:38:03;;;;;;;;;;;;;;;;;;12611559;28;20063;-81
2022/07/07 05:44:04;;;;;;;0.90;0.90;;;;;;;;;;12631848;28;19927;-78
2022/07/07 05:50:06;;;;;;;;;;;;;;;;;;12645745;28;20483;-82
2022/07/07 05:56:08;;;;;;;0.87;0.87;;;;;;;;;;12645035;28;19908;-81
2022/07/07 06:02:09;;;;;;;;;;;;;;;;;;12644945;28;20282;-82
2022/07/07 06:08:11;;;;;;;;;;;;;;;;;;12643437;28;19927;-81
2022/07/07 06:14:13;;;;;;;0.70;0.70;;;;;;;;;;12643230;28;19911;-83
2022/07/07 06:20:15;;;;;;;;;;;;;;;;;;12607649;28;20653;-82
2022/07/07 06:26:17;;;;;;;1.37;0.80;;;;;;;;;;12642675;28;20284;-83
2022/07/07 06:32:19;;;;;;;0.80;0.70;;;;;;;;;;12642048;28;20035;-82
2022/07/07 06:38:21;;;;;;;;;;;;;;;;;;12624508;28;20052;-82
2022/07/07 06:44:23;;;;;;;0.90;0.90;;;;;;;;;;12642581;28;19923;-82
2022/07/07 06:50:25;;;;;;;1.20;1.10;;;;;;;;;;12623972;28;20050;-81
2022/07/07 06:56:26;;;;;;;0.95;0.55;;;;;;;;;;12642035;28;20039;-82
2022/07/07 07:02:28;;;;;;;0.60;0.50;;;;;;;;;;12670702;28;20472;-78
2022/07/07 07:08:30;;;;;;;0.73;0.70;;;;;;;;;;12642192;28;20052;-79
2022/07/07 07:14:32;;;;;;;1.15;0.70;;;;;;;;;;12624150;28;20039;-85
2022/07/07 07:20:35;;;;;;;1.48;0.80;;;;;;;;;;12643149;28;20036;-86
2022/07/07 07:26:36;;;;;;;1.27;1.17;;;;;;;;;;12643581;28;20047;-85
2022/07/07 07:32:39;;;;;;;0.85;0.85;;;;;;;;;;12631534;28;20047;-82
2022/07/07 07:38:41;;;;;;;1.38;1.00;;;;;;;;;;12633456;28;20074;-85
2022/07/07 07:51:03;;;;;;;1.13;0.70;;;;;;;;;;12650659;28;20036;-86
2022/07/07 07:57:06;;;;;;;1.20;1.10;;;;;;;;;;12649954;28;20050;-84
2022/07/07 08:03:08;;;;;;;1.45;0.80;;;;;;;;;;12631484;28;20043;-86
2022/07/07 08:09:10;;;;;;;0.98;0.98;;;;;;;;;;12615239;28;20036;-84
2022/07/07 08:15:12;;;;;;;1.20;1.08;;;;;;;;;;12631276;28;20028;-85
2022/07/07 08:21:14;;;;;;;0.80;0.80;;;;;;;;;;12630707;28;20044;-86
2022/07/07 08:27:16;;;;;;;1.00;1.00;;;;;;;;;;12648565;28;20039;-85
2022/07/07 08:33:18;;;;;;;0.55;0.52;;;;;;;;;;12648312;28;20028;-85
2022/07/07 08:39:19;;;;;;;0.40;0.40;;;;;;;;;;12630041;28;20044;-83
2022/07/07 08:45:21;;;;;;;0.85;0.70;;;;;;;;;;12629168;28;20052;-85
2022/07/07 08:51:23;;;;;;;0.57;0.57;;;;;;;;;;12647743;28;20032;-86
2022/07/07 08:57:25;;;;;;;1.23;0.70;;;;;;;;;;12612445;28;20539;-84
2022/07/07 09:03:27;;;;;;;1.35;0.82;;;;;;;;;;12647243;28;20043;-83
2022/07/07 09:09:37;;;;;;;1.13;0.77;;;;;;;;;;12663169;28;20032;-80
2022/07/07 09:15:39;;;;;;;0.73;0.60;;;;;;;;;;12663343;28;20310;-81
2022/07/07 09:21:42;;;;;;;0.73;0.60;;;;;;;;;;12611736;28;20036;-81
2022/07/07 09:27:55;;;;;;;1.25;0.73;;;;;;;;;;12645716;28;20040;-82
2022/07/07 09:34:13;;;;;;;0.70;0.70;;;;;;;;;;12646637;28;20388;-84
2022/07/07 09:40:18;;;;;;;1.63;0.60;;;;;;;;;;12627862;28;20082;-82
2022/07/07 09:46:24;;;;;;;0.60;0.43;;;;;;;;;;12626328;28;20070;-78
2022/07/07 09:52:26;;;;;;;1.30;0.70;;;;;;;;;;12643256;28;20084;-80
2022/07/07 09:58:31;;;;;;;0.50;0.50;;;;;;;;;;12643996;28;20032;-80
2022/07/07 10:04:33;;;;;;;0.65;0.52;;;;;;;;;;12625697;28;20039;-82
2022/07/07 10:10:35;;;;;;;1.33;0.70;;;;;;;;;;12625461;28;20424;-81
2022/07/07 10:16:37;;;;;;;0.75;0.68;;;;;;;;;;12642144;28;20392;-85
2022/07/07 10:22:40;;;;;;;0.70;0.70;;;;;;;;;;12623652;28;20051;-80
2022/07/07 10:29:00;;;;;;;0.73;0.52;;;;;;;;;;12627704;28;20040;-83
2022/07/07 10:35:09;;;;;;;0.60;0.50;;;;;;;;;;12625519;28;20036;-78
2022/07/07 10:41:11;;;;;;;0.57;0.57;;;;;;;;;;12643903;28;20385;-78
2022/07/07 10:47:12;;;;;;;0.52;0.52;;;;;;;;;;12625339;28;20032;-78
2022/07/07 10:53:31;;;;;;;0.90;0.52;;;;;;;;;;12625261;28;20032;-78
2022/07/07 10:59:51;;;;;;;1.52;1.00;;;;;;;;;;12608278;28;20384;-78
2022/07/07 11:05:56;;;;;;;1.13;0.80;;;;;;;;;;12631425;28;20048;-83
2022/07/07 11:12:27;;;;;;;0.40;0.40;;;;;;;;;;12618184;28;20472;-83
2022/07/07 11:18:33;;;;;;;1.08;0.70;;;;;;;;;;12618303;28;20051;-83
2022/07/07 11:24:36;;;;;;;0.45;0.45;;;;;;;;;;12652175;28;20051;-83
2022/07/07 11:30:41;;;;;;;0.65;0.45;;;;;;;;;;12653050;28;20036;-83
2022/07/07 11:36:43;;;;;;;1.77;0.60;;;;;;;;;;12652982;28;20047;-84
2022/07/07 11:42:45;;;;;;;0.65;0.40;;;;;;;;;;12633503;28;20052;-83
2022/07/07 11:48:47;;;;;;;1.20;0.50;;;;;;;;;;12616203;28;20488;-83
2022/07/07 11:54:49;;;;;;;0.57;0.57;;;;;;;;;;12632136;28;20040;-83
2022/07/07 12:00:55;;;;;;;0.50;0.45;;;;;;;;;;12650714;28;20036;-78
2022/07/07 12:06:57;;;;;;;0.57;0.50;;;;;;;;;;12631816;28;20040;-82
2022/07/07 12:13:00;;;;;;;0.82;0.57;;;;;;;;;;12657104;28;20542;-82
2022/07/07 12:19:02;;;;;;;0.90;0.40;;;;;;;;;;12651595;28;20032;-82
2022/07/07 12:25:05;;;;;;;0.20;0.20;;;;;;;;;;12649039;28;20043;-77
2022/07/07 12:31:07;;;;;;;1.27;0.50;;;;;;;;;;12630820;28;20036;-78
2022/07/07 12:37:12;;;;;;;0.40;0.40;;;;;;;;;;12647736;28;20032;-83
2022/07/07 12:43:14;;;;;;;0.40;0.40;;;;;;;;;;12630347;28;20412;-78
2022/07/07 12:49:16;;;;;;;0.40;0.40;;;;;;;;;;12647897;28;20047;-82
2022/07/07 12:55:18;;;;;;;0.47;0.47;;;;;;;;;;12629785;28;20038;-83
2022/07/07 13:01:21;;;;;;;1.27;0.63;;;;;;;;;;12647800;28;20032;-82
2022/07/07 13:07:22;;;;;;;0.47;0.47;;;;;;;;;;12629708;28;20044;-78
2022/07/07 13:13:24;;;;;;;0.82;0.70;;;;;;;;;;12647100;28;20035;-77
2022/07/07 13:19:27;;;;;;;0.77;0.60;;;;;;;;;;12646276;28;20399;-82
2022/07/07 13:25:30;;;;;;;0.85;0.30;;;;;;;;;;12627211;28;20070;-82
2022/07/07 13:31:31;;;;;;;2.08;0.73;;;;;;;;;;12628077;28;20036;-83
2022/07/07 13:37:33;;;;;;;0.80;0.50;;;;;;;;;;12646272;28;20059;-82
2022/07/07 13:43:35;;;;;;;1.52;0.77;;;;;;;;;;12645591;28;20475;-83
2022/07/07 13:49:37;;;;;;;1.10;0.50;;;;;;;;;;12627434;28;20044;-83
2022/07/07 13:55:39;;;;;;;0.70;0.70;;;;;;;;;;12628983;28;20044;-83
2022/07/07 14:01:41;;;;;;;0.40;0.40;;;;;;;;;;12627684;28;20047;-78
2022/07/07 14:07:43;;;;;;;0.85;0.60;;;;;;;;;;12645079;28;20043;-78
2022/07/07 14:13:45;;;;;;;0.90;0.60;;;;;;;;;;12609006;28;20043;-78
2022/07/07 14:19:47;;;;;;;0.55;0.55;;;;;;;;;;12644515;28;20035;-83
2022/07/07 14:25:49;;;;;;;0.80;0.80;;;;;;;;;;12644126;28;20044;-82
2022/07/07 14:31:51;;;;;;;0.85;0.60;;;;;;;;;;12609702;28;20036;-83
2022/07/07 14:37:52;;;;;;;1.33;0.80;;;;;;;;;;12645906;28;20056;-83
2022/07/07 14:43:55;;;;;;;0.95;0.70;;;;;;;;;;12636390;28;20040;-83
2022/07/07 14:49:56;;;;;;;1.50;1.40;;;;;;;;;;12635833;28;20035;-78
2022/07/07 14:55:58;;;;;;;1.00;0.90;;;;;;;;;;12654749;28;20040;-78
2022/07/07 15:02:00;;;;;;;1.30;1.08;;;;;;;;;;12635174;28;20393;-78
2022/07/07 15:08:07;;;;;;;0.88;0.88;;;;;;;;;;12636550;28;20392;-78
2022/07/07 15:14:08;;;;;;;1.42;0.90;;;;;;;;;;12652342;28;20507;-78
2022/07/07 15:20:10;;;;;;;0.80;0.60;;;;;;;;;;12634075;28;20035;-78
2022/07/07 15:26:12;;;;;;;0.60;0.60;;;;;;;;;;12651123;28;20047;-78
2022/07/07 15:32:14;;;;;;;0.73;0.73;;;;;;;;;;12633259;28;20047;-78
2022/07/07 15:38:16;;;;;;;1.08;0.60;;;;;;;;;;12644667;28;20059;-78
2022/07/07 15:44:19;;;;;;;0.93;0.70;;;;;;;;;;12633372;28;20040;-79
2022/07/07 15:50:22;;;;;;;0.60;0.60;;;;;;;;;;12651148;28;20032;-81
2022/07/07 15:56:24;;;;;;;0.88;0.80;;;;;;;;;;12615787;28;20043;-79
2022/07/07 16:02:26;;;;;;;1.70;0.50;;;;;;;;;;12613757;28;20486;-79
2022/07/07 16:08:28;;;;;;;1.20;0.65;;;;;;;;;;12649593;28;20044;-79
2022/07/07 16:14:31;;;;;;;0.73;0.73;;;;;;;;;;12648368;28;20035;-77
2022/07/07 16:20:33;;;;;;;4.45;1.38;;;;;;;;;;12629049;28;20051;-79
2022/07/07 16:26:36;;;;;;;2.08;1.00;;;;;;;;;;12629590;28;20044;-79
2022/07/07 16:32:42;;;;;;;4.35;1.70;;;;;;;;;;12645720;28;20028;-80
2022/07/07 16:38:44;;;;;;;1.92;1.15;;;;;;;;;;12612217;28;20048;-79
2022/07/07 16:44:47;;;;;;;2.35;1.60;;;;;;;;;;12628223;28;20400;-79
2022/07/07 16:50:50;;;;;;;1.65;1.27;;;;;;;;;;12627722;28;20146;-79
2022/07/07 16:56:52;;;;;;;1.10;1.00;;;;;;;;;;12646091;28;20032;-80
2022/07/07 17:02:53;;;;;;;1.02;0.90;;;;;;;;;;12646463;28;20044;-78
2022/07/07 17:08:55;;;;;;;1.20;1.10;;;;;;;;;;12629948;28;20048;-78
2022/07/07 17:14:57;;;;;;;2.92;2.10;;;;;;;;;;12628845;28;20043;-78
2022/07/07 17:20:59;;;;;;;4.05;2.83;;;;;;;;;;12629437;28;20040;-78
2022/07/07 17:27:01;;;;;;;5.55;2.90;;;;;;;;;;12628151;28;20040;-78
2022/07/07 17:33:03;;;;;;;3.28;2.08;;;;;;;;;;12629084;28;20028;-79
2022/07/07 17:39:05;;;;;;;1.52;1.42;;;;;;;;;;12646693;28;20523;-79
2022/07/07 17:45:08;;;;;;;1.27;1.17;;;;;;;;;;12627886;28;20048;-78
2022/07/07 17:51:09;;;;;;;1.30;1.20;;;;;;;;;;12627615;28;20039;-78
2022/07/07 17:57:11;;;;;;;1.67;0.98;;;;;;;;;;12627250;28;20036;-79
2022/07/07 18:03:13;;;;;;;1.40;0.90;;;;;;;;;;12610810;28;20125;-83
2022/07/07 18:09:15;;;;;;;1.35;0.75;;;;;;;;;;12627514;28;20052;-84
2022/07/07 18:15:17;;;;;;;1.10;0.82;;;;;;;;;;12626387;28;20039;-83
2022/07/07 18:21:19;;;;;;;0.60;0.57;;;;;;;;;;12644458;28;20028;-83
2022/07/07 18:27:20;;;;;;;0.50;0.50;;;;;;;;;;12625657;28;20126;-83
2022/07/07 18:33:22;;;;;;;0.63;0.50;;;;;;;;;;12607904;28;20034;-84
2022/07/07 18:39:24;;;;;;;0.50;0.32;;;;;;;;;;12608544;28;20063;-85
2022/07/07 18:45:26;;;;;;;0.25;0.25;;;;;;;;;;12622636;28;20044;-86
2022/07/07 18:51:35;;;;;;;0.35;0.32;;;;;;;;;;12640498;28;20043;-85
2022/07/07 18:57:37;;;;;;;0.40;0.40;;;;;;;;;;12641425;28;20036;-86
2022/07/07 19:03:39;;;;;;;0.40;0.20;;;;;;;;;;12622763;28;20032;-83
2022/07/07 19:09:41;;;;;;;1.58;0.30;;;;;;;;;;12641207;28;20074;-83
2022/07/07 19:15:43;;;;;;;0.25;0.20;;;;;;;;;;12622266;28;20032;-84
2022/07/07 19:21:45;;;;;;;0.55;0.40;;;;;;;;;;12605959;28;20036;-88
2022/07/07 19:27:47;;;;;;;0.30;0.30;;;;;;;;;;12645203;28;20040;-85
2022/07/07 19:33:48;;;;;;;;;;;;;;;;;;12599633;28;20036;-85
2022/07/07 19:39:51;;;;;;;0.60;0.20;;;;;;;;;;12649188;28;19947;-84
2022/07/07 19:45:54;;;;;;;0.22;0.10;;;;;;;;;;12614229;28;20040;-84
2022/07/07 19:51:56;;;;;;;0.20;0.20;;;;;;;;;;12647031;28;20039;-85
2022/07/07 19:57:57;;;;;;;0.55;0.30;;;;;;;;;;12629420;28;20040;-84
2022/07/07 20:03:59;;;;;;;;;;;;;;;;;;12648207;28;20076;-84
2022/07/07 20:10:01;;;;;;;0.20;0.20;;;;;;;;;;12631283;28;19919;-84
2022/07/07 20:16:02;;;;;;;0.28;0.28;;;;;;;;;;12633197;28;20035;-84
2022/07/07 20:22:04;;;;;;;;;;;;;;;;;;12630473;28;20039;-84
2022/07/07 20:28:06;;;;;;;1.70;0.50;;;;;;;;;;12636875;28;19923;-85
2022/07/07 20:34:07;;;;;;;;;;;;;;;;;;12630053;28;20046;-86
2022/07/07 20:40:09;;;;;;;0.50;0.37;;;;;;;;;;12647139;28;19920;-86
2022/07/07 20:46:11;;;;;;;;;;;;;;;;;;12612511;28;20040;-85
2022/07/07 20:52:12;;;;;;;0.43;0.43;;;;;;;;;;12611229;28;19931;-85
2022/07/07 20:58:14;;;;;;;;;;;;;;;;;;12628000;28;20491;-85
2022/07/07 21:04:16;;;;;;;0.45;0.30;;;;;;;;;;12628983;28;19908;-86
2022/07/07 21:10:18;;;;;;;1.10;0.50;;;;;;;;;;12646863;28;20058;-87
2022/07/07 21:16:20;;;;;;;0.30;0.30;;;;;;;;;;12610751;28;20032;-85
2022/07/07 21:22:22;;;;;;;0.75;0.50;;;;;;;;;;12627394;28;20063;-86
2022/07/07 21:28:24;;;;;;;0.98;0.30;;;;;;;;;;12626756;28;20055;-87
2022/07/07 21:34:26;;;;;;;0.30;0.30;;;;;;;;;;12644409;28;20028;-80
2022/07/07 21:40:27;;;;;;;0.57;0.47;;;;;;;;;;12644667;28;20048;-87
2022/07/07 21:46:29;;;;;;;0.63;0.40;;;;;;;;;;12643306;28;20040;-80
2022/07/07 21:52:31;;;;;;;0.50;0.38;;;;;;;;;;12625927;28;20039;-87
2022/07/07 21:58:33;;;;;;;;;;;;;;;;;;12609323;28;20032;-81
2022/07/07 22:10:55;;;;;;;1.25;0.68;;;;;;;;;;12626387;28;20048;-86
2022/07/07 22:16:57;;;;;;;;;;;;;;;;;;12609060;28;20486;-79
2022/07/07 22:22:58;;;;;;;1.15;0.82;;;;;;;;;;12644203;28;19982;-86
2022/07/07 22:29:01;;;;;;;1.42;0.70;;;;;;;;;;12624409;28;20047;-79
2022/07/07 22:35:03;;;;;;;1.58;0.95;;;;;;;;;;12642305;28;20526;-79
2022/07/07 22:41:05;;;;;;;0.57;0.47;;;;;;;;;;12642933;28;20511;-79
2022/07/07 22:47:07;;;;;;;1.05;0.45;;;;;;;;;;12608744;28;20067;-85
2022/07/07 22:53:09;;;;;;;1.10;0.60;;;;;;;;;;12625238;28;20043;-84
2022/07/07 22:59:11;;;;;;;1.92;0.70;;;;;;;;;;12612418;28;20040;-78
2022/07/07 23:05:13;;;;;;;;;;;;;;;;;;12636176;28;20487;-78
2022/07/07 23:11:14;;;;;;;0.30;0.30;;;;;;;;;;12656366;28;20375;-83
2022/07/07 23:17:16;;;;;;;1.23;0.45;;;;;;;;;;12636467;28;20032;-84
2022/07/07 23:23:18;;;;;;;0.40;0.40;;;;;;;;;;12653752;28;20028;-84
2022/07/07 23:29:20;;;;;;;0.82;0.57;;;;;;;;;;12653609;28;20048;-79
2022/07/07 23:35:21;;;;;;;;;;;;;;;;;;12635060;28;20036;-84
2022/07/07 23:41:23;;;;;;;0.45;0.45;;;;;;;;;;12634338;28;19927;-79
2022/07/07 23:47:25;;;;;;;0.57;0.30;;;;;;;;;;12634164;28;20054;-79
2022/07/07 23:53:27;;;;;;;0.77;0.47;;;;;;;;;;12619697;28;20032;-85
2022/07/07 23:59:28;;;;;;;0.47;0.43;;;;;;;;;;12650695;28;20502;-79
